createdAt,value
2019-03-27T05:22:14.189Z,60.00
2019-03-27T05:23:14.162Z,64.00
2019-03-27T05:24:14.156Z,72.00
2019-03-27T05:25:14.142Z,76.00
2019-03-27T05:26:14.149Z,84.00
2019-03-27T05:27:14.125Z,92.00
2019-03-27T05:28:14.107Z,96.00
2019-03-27T05:29:14.100Z,104.00
2019-03-27T05:30:14.099Z,112.00
2019-03-27T05:31:14.093Z,120.00
2019-03-27T05:32:14.070Z,128.00
2019-03-27T05:33:14.059Z,140.00
2019-03-27T05:34:14.054Z,152.00
2019-03-27T05:35:14.039Z,168.00
2019-03-27T05:36:14.048Z,180.00
2019-03-27T05:37:14.015Z,192.00
2019-03-27T05:38:14.011Z,200.00
2019-03-27T05:39:14.763Z,208.00
2019-03-27T05:40:13.982Z,212.00
2019-03-27T05:41:14.003Z,212.00
2019-03-27T05:42:13.970Z,208.00
2019-03-27T05:43:13.955Z,216.00
2019-03-27T05:44:13.942Z,224.00
2019-03-27T05:45:13.934Z,240.00
2019-03-27T05:46:13.936Z,248.00
2019-03-27T05:47:13.910Z,252.00
2019-03-27T05:48:13.901Z,248.00
2019-03-27T05:49:13.892Z,236.00
2019-03-27T05:50:13.881Z,228.00
2019-03-27T05:51:13.895Z,216.00
2019-03-27T05:52:13.866Z,208.00
2019-03-27T05:53:13.849Z,212.00
2019-03-27T05:54:13.839Z,216.00
2019-03-27T05:55:13.831Z,228.00
2019-03-27T05:56:13.851Z,248.00
2019-03-27T05:57:13.807Z,280.00
2019-03-27T05:58:13.795Z,300.00
2019-03-27T05:59:13.786Z,312.00
2019-03-27T06:00:13.773Z,312.00
2019-03-27T06:01:13.780Z,300.00
2019-03-27T06:02:13.753Z,320.00
2019-03-27T06:03:13.745Z,372.00
2019-03-27T06:04:13.847Z,416.00
2019-03-27T06:05:13.722Z,460.00
2019-03-27T06:06:13.721Z,508.00
2019-03-27T06:07:13.718Z,540.00
2019-03-27T06:09:29.371Z,620.00
2019-03-27T06:10:29.359Z,640.00
2019-03-27T06:11:29.367Z,656.00
2019-03-27T06:12:29.337Z,696.00
2019-03-27T06:13:29.334Z,724.00
2019-03-27T06:14:29.314Z,736.00
2019-03-27T06:15:29.304Z,740.00
2019-03-27T06:16:29.312Z,768.00
2019-03-27T06:17:29.302Z,832.00
2019-03-27T06:18:29.280Z,892.00
2019-03-27T06:19:29.269Z,916.00
2019-03-27T06:20:29.251Z,936.00
2019-03-27T06:21:29.271Z,924.00
2019-03-27T06:22:29.231Z,888.00
2019-03-27T06:23:29.260Z,912.00
2019-03-27T06:24:29.215Z,976.00
2019-03-27T06:25:29.213Z,1040.00
2019-03-27T06:26:29.207Z,1088.00
2019-03-27T06:27:29.181Z,1108.00
2019-03-27T06:28:29.169Z,1116.00
2019-03-27T06:29:29.159Z,1136.00
2019-03-27T06:30:29.147Z,1168.00
2019-03-27T06:31:29.165Z,1216.00
2019-03-27T06:32:29.126Z,1224.00
2019-03-27T06:33:29.839Z,1256.00
2019-03-27T06:34:29.108Z,1312.00
2019-03-27T06:35:29.106Z,1344.00
2019-03-27T06:36:29.107Z,1372.00
2019-03-27T06:37:29.072Z,1392.00
2019-03-27T06:38:29.065Z,1376.00
2019-03-27T06:39:29.070Z,1348.00
2019-03-27T06:40:29.049Z,1340.00
2019-03-27T06:41:29.050Z,1328.00
2019-03-27T06:42:29.038Z,1312.00
2019-03-27T06:43:29.010Z,1300.00
2019-03-27T06:44:29.004Z,1320.00
2019-03-27T06:45:28.999Z,1360.00
2019-03-27T06:46:29.010Z,1408.00
2019-03-27T06:47:28.970Z,1480.00
2019-03-27T06:48:28.970Z,1556.00
2019-03-27T06:49:29.102Z,1628.00
2019-03-27T06:50:28.943Z,1640.00
2019-03-27T06:51:39.497Z,1556.00
2019-03-27T06:52:29.925Z,1432.00
2019-03-27T06:53:29.013Z,1368.00
2019-03-27T06:54:28.909Z,1316.00
2019-03-27T06:55:28.893Z,1308.00
2019-03-27T06:56:28.900Z,1316.00
2019-03-27T06:57:28.881Z,1324.00
2019-03-27T06:58:28.856Z,1260.00
2019-03-27T06:59:28.845Z,1128.00
2019-03-27T07:00:28.911Z,964.00
2019-03-27T07:01:28.849Z,860.00
2019-03-27T07:02:29.120Z,792.00
2019-03-27T07:03:28.827Z,772.00
2019-03-27T07:04:28.803Z,812.00
2019-03-27T07:05:28.782Z,832.00
2019-03-27T07:06:28.784Z,868.00
2019-03-27T07:07:28.771Z,912.00
2019-03-27T07:08:28.747Z,1052.00
2019-03-27T07:09:28.742Z,1204.00
2019-03-27T07:10:28.731Z,1332.00
2019-03-27T07:11:28.738Z,1400.00
2019-03-27T07:12:28.730Z,1400.00
2019-03-27T07:13:28.704Z,1332.00
2019-03-27T07:14:28.683Z,1256.00
2019-03-27T07:15:28.677Z,1240.00
2019-03-27T07:16:28.700Z,1280.00
2019-03-27T07:17:28.660Z,1348.00
2019-03-27T07:18:39.439Z,1420.00
2019-03-27T07:19:29.631Z,1472.00
2019-03-27T07:20:28.632Z,1460.00
2019-03-27T07:21:28.629Z,1412.00
2019-03-27T07:22:28.641Z,1368.00
2019-03-27T07:23:28.591Z,1368.00
2019-03-27T07:24:28.583Z,1364.00
2019-03-27T07:25:28.577Z,1384.00
2019-03-27T07:26:28.589Z,1424.00
2019-03-27T07:27:28.554Z,1464.00
2019-03-27T07:28:28.538Z,1508.00
2019-03-27T07:29:28.534Z,1524.00
2019-03-27T07:30:28.528Z,1484.00
2019-03-27T07:31:28.537Z,1452.00
2019-03-27T07:32:28.494Z,1496.00
2019-03-27T07:33:28.611Z,1608.00
2019-03-27T07:34:28.493Z,1716.00
2019-03-27T07:35:28.462Z,1836.00
2019-03-27T07:36:28.641Z,1924.00
2019-03-27T07:37:28.443Z,1980.00
2019-03-27T07:38:28.431Z,2016.00
2019-03-27T07:39:28.424Z,2060.00
2019-03-27T07:40:28.428Z,2068.00
2019-03-27T07:41:28.400Z,2040.00
2019-03-27T07:42:28.964Z,2056.00
2019-03-27T07:43:28.473Z,2152.00
2019-03-27T07:44:28.385Z,2260.00
2019-03-27T07:45:28.363Z,2376.00
2019-03-27T07:46:28.353Z,2516.00
2019-03-27T07:47:28.354Z,2704.00
2019-03-27T07:48:28.329Z,2896.00
2019-03-27T07:49:28.322Z,3020.00
2019-03-27T07:50:28.326Z,3084.00
2019-03-27T07:51:28.301Z,3176.00
2019-03-27T07:52:28.308Z,3196.00
2019-03-27T07:53:28.278Z,3132.00
2019-03-27T07:54:28.263Z,3052.00
2019-03-27T07:55:28.257Z,3024.00
2019-03-27T07:56:28.255Z,3092.00
2019-03-27T07:57:28.267Z,3256.00
2019-03-27T07:58:28.221Z,3392.00
2019-03-27T07:59:28.210Z,3456.00
2019-03-27T08:00:28.212Z,3340.00
2019-03-27T08:01:28.208Z,3280.00
2019-03-27T08:02:28.199Z,3244.00
2019-03-27T08:03:28.173Z,3204.00
2019-03-27T08:04:28.158Z,3184.00
2019-03-27T08:05:28.147Z,3264.00
2019-03-27T08:06:28.137Z,3572.00
2019-03-27T08:07:28.151Z,3904.00
2019-03-27T08:08:28.118Z,4060.00
2019-03-27T08:09:28.116Z,4152.00
2019-03-27T08:10:28.092Z,4332.00
2019-03-27T08:11:28.182Z,4552.00
2019-03-27T08:12:28.091Z,4488.00
2019-03-27T08:13:28.077Z,4076.00
2019-03-27T08:14:28.049Z,3984.00
2019-03-27T08:15:28.049Z,4208.00
2019-03-27T08:16:28.030Z,4316.00
2019-03-27T08:17:28.040Z,4320.00
2019-03-27T08:18:28.017Z,4308.00
2019-03-27T08:19:27.997Z,4212.00
2019-03-27T08:20:28.004Z,4148.00
2019-03-27T08:21:31.018Z,4276.00
2019-03-27T08:22:28.001Z,4416.00
2019-03-27T08:23:27.953Z,4348.00
2019-03-27T08:24:27.945Z,4100.00
2019-03-27T08:25:27.936Z,3864.00
2019-03-27T08:26:27.924Z,3748.00
2019-03-27T08:27:27.937Z,3620.00
2019-03-27T08:28:27.895Z,3544.00
2019-03-27T08:29:27.884Z,3416.00
2019-03-27T08:30:27.879Z,3212.00
2019-03-27T08:31:27.876Z,3092.00
2019-03-27T08:32:27.875Z,3056.00
2019-03-27T08:33:27.857Z,2976.00
2019-03-27T08:34:27.834Z,2872.00
2019-03-27T08:35:27.822Z,2792.00
2019-03-27T08:36:27.825Z,2752.00
2019-03-27T08:37:27.832Z,2796.00
2019-03-27T08:38:27.788Z,2768.00
2019-03-27T08:39:27.784Z,2704.00
2019-03-27T08:40:27.765Z,2624.00
2019-03-27T08:41:27.755Z,2552.00
2019-03-27T08:42:27.765Z,2360.00
2019-03-27T08:43:27.734Z,2148.00
2019-03-27T08:44:27.731Z,2064.00
2019-03-27T08:45:27.726Z,2056.00
2019-03-27T08:46:27.700Z,2076.00
2019-03-27T08:47:27.706Z,2076.00
2019-03-27T08:48:27.687Z,2040.00
2019-03-27T08:49:27.704Z,1784.00
2019-03-27T08:50:27.664Z,1612.00
2019-03-27T08:51:27.652Z,1656.00
2019-03-27T08:52:27.661Z,1844.00
2019-03-27T08:53:27.625Z,2184.00
2019-03-27T08:54:27.618Z,2500.00
2019-03-27T08:55:27.605Z,2744.00
2019-03-27T08:56:27.609Z,2884.00
2019-03-27T08:57:27.597Z,2824.00
2019-03-27T08:58:27.579Z,2788.00
2019-03-27T08:59:27.559Z,2748.00
2019-03-27T09:00:27.550Z,2708.00
2019-03-27T09:01:27.539Z,2896.00
2019-03-27T09:02:27.607Z,3212.00
2019-03-27T09:03:27.519Z,3596.00
2019-03-27T09:04:27.514Z,4192.00
2019-03-27T09:05:27.583Z,5248.00
2019-03-27T09:06:33.659Z,6572.00
2019-03-27T09:07:28.506Z,8072.00
2019-03-27T09:08:27.465Z,10944.00
2019-03-27T09:09:27.452Z,32640.00
2019-03-27T09:10:27.447Z,35968.00
2019-03-27T09:11:27.439Z,36288.00
2019-03-27T09:12:27.438Z,37408.00
2019-03-27T09:13:27.414Z,34528.00
2019-03-27T09:14:27.398Z,25408.00
2019-03-27T09:15:27.411Z,19424.00
2019-03-27T09:16:27.379Z,29760.00
2019-03-27T09:17:27.385Z,15968.00
2019-03-27T09:18:27.362Z,14536.00
2019-03-27T09:19:35.532Z,11768.00
2019-03-27T09:20:28.358Z,12032.00
2019-03-27T09:21:27.320Z,12648.00
2019-03-27T09:22:27.324Z,12464.00
2019-03-27T09:23:27.296Z,11964.00
2019-03-27T09:24:27.297Z,12996.00
2019-03-27T09:25:27.274Z,18368.00
2019-03-27T09:26:27.266Z,35232.00
2019-03-27T09:27:27.308Z,31904.00
2019-03-27T09:28:27.242Z,25056.00
2019-03-27T09:29:27.233Z,19040.00
2019-03-27T09:30:27.227Z,34016.00
2019-03-27T09:31:27.212Z,39776.00
2019-03-27T09:32:27.215Z,40544.00
2019-03-27T09:33:27.198Z,40512.00
2019-03-27T09:34:27.185Z,40256.00
2019-03-27T09:35:27.170Z,43008.00
2019-03-27T09:36:27.154Z,44736.00
2019-03-27T09:37:27.172Z,44736.00
2019-03-27T09:38:27.138Z,44672.00
2019-03-27T09:39:27.124Z,43552.00
2019-03-27T09:40:27.112Z,43680.00
2019-03-27T09:41:27.102Z,43936.00
2019-03-27T09:42:27.118Z,46560.00
2019-03-27T09:43:27.080Z,44864.00
2019-03-27T09:44:27.072Z,41888.00
2019-03-27T09:45:27.061Z,42624.00
2019-03-27T09:46:27.047Z,44704.00
2019-03-27T09:47:27.053Z,23232.00
2019-03-27T09:48:27.038Z,10048.00
2019-03-27T09:49:27.016Z,9080.00
2019-03-27T09:50:27.011Z,8388.00
2019-03-27T09:51:26.996Z,8636.00
2019-03-27T09:52:27.004Z,8760.00
2019-03-27T09:53:26.976Z,8956.00
2019-03-27T09:54:26.978Z,9540.00
2019-03-27T09:55:26.951Z,45472.00
2019-03-27T09:56:26.948Z,47712.00
2019-03-27T09:57:26.952Z,47328.00
2019-03-27T09:58:26.920Z,46208.00
2019-03-27T09:59:26.910Z,47616.00
2019-03-27T10:00:26.915Z,50464.00
2019-03-27T10:01:26.894Z,49408.00
2019-03-27T10:02:26.900Z,45088.00
2019-03-27T10:03:26.868Z,40768.00
2019-03-27T10:04:26.856Z,13248.00
2019-03-27T10:05:26.848Z,11956.00
2019-03-27T10:06:26.854Z,19552.00
2019-03-27T10:07:26.845Z,39456.00
2019-03-27T10:08:26.815Z,45280.00
2019-03-27T10:09:26.801Z,51392.00
2019-03-27T10:10:26.793Z,49344.00
2019-03-27T10:11:26.778Z,48192.00
2019-03-27T10:12:26.795Z,50656.00
2019-03-27T10:13:26.768Z,49216.00
2019-03-27T10:14:26.755Z,49696.00
2019-03-27T10:15:26.750Z,50208.00
2019-03-27T10:16:26.727Z,52096.00
2019-03-27T10:17:26.733Z,52192.00
2019-03-27T10:18:26.720Z,51200.00
2019-03-27T10:19:26.702Z,50976.00
2019-03-27T10:20:26.685Z,56352.00
2019-03-27T10:21:26.673Z,56608.00
2019-03-27T10:22:26.683Z,55712.00
2019-03-27T10:23:26.656Z,56128.00
2019-03-27T10:24:26.652Z,56576.00
2019-03-27T10:25:26.642Z,55680.00
2019-03-27T10:26:26.629Z,56224.00
2019-03-27T10:27:26.631Z,55200.00
2019-03-27T10:28:26.600Z,55328.00
2019-03-27T10:29:26.615Z,52928.00
2019-03-27T10:30:26.581Z,51040.00
2019-03-27T10:31:26.586Z,45408.00
2019-03-27T10:32:26.580Z,39360.00
2019-03-27T10:33:26.550Z,14072.00
2019-03-27T10:34:26.541Z,19456.00
2019-03-27T10:35:26.533Z,16640.00
2019-03-27T10:36:26.527Z,37312.00
2019-03-27T10:37:26.524Z,48032.00
2019-03-27T10:38:26.498Z,50848.00
2019-03-27T10:39:26.490Z,48800.00
2019-03-27T10:40:26.477Z,43808.00
2019-03-27T10:41:26.467Z,9556.00
2019-03-27T10:42:26.483Z,5836.00
2019-03-27T10:43:26.452Z,4948.00
2019-03-27T10:44:26.436Z,4248.00
2019-03-27T10:45:26.437Z,3704.00
2019-03-27T10:46:26.415Z,3128.00
2019-03-27T10:47:26.423Z,2628.00
2019-03-27T10:48:26.412Z,2288.00
2019-03-27T10:49:26.388Z,2072.00
2019-03-27T10:50:26.372Z,1912.00
2019-03-27T10:51:26.361Z,1776.00
2019-03-27T10:52:26.367Z,1660.00
2019-03-27T10:53:26.344Z,1564.00
2019-03-27T10:54:26.339Z,1484.00
2019-03-27T10:55:26.338Z,1440.00
2019-03-27T10:56:26.308Z,1412.00
2019-03-27T10:57:26.312Z,1380.00
2019-03-27T10:58:26.318Z,1372.00
2019-03-27T10:59:26.283Z,1380.00
2019-03-27T11:00:26.268Z,1440.00
2019-03-27T11:01:26.265Z,1540.00
2019-03-27T11:02:26.269Z,1660.00
2019-03-27T11:03:26.238Z,1764.00
2019-03-27T11:04:26.222Z,1876.00
2019-03-27T11:05:26.219Z,1984.00
2019-03-27T11:06:26.210Z,2072.00
2019-03-27T11:07:26.203Z,2116.00
2019-03-27T11:08:26.206Z,2136.00
2019-03-27T11:09:26.169Z,2168.00
2019-03-27T11:10:26.172Z,2232.00
2019-03-27T11:11:26.148Z,2336.00
2019-03-27T11:12:26.152Z,2468.00
2019-03-27T11:13:26.131Z,2664.00
2019-03-27T11:14:37.311Z,2856.00
2019-03-27T11:15:27.107Z,2996.00
2019-03-27T11:16:26.091Z,3088.00
2019-03-27T11:17:26.096Z,3208.00
2019-03-27T11:18:26.083Z,3364.00
2019-03-27T11:19:26.065Z,3528.00
2019-03-27T11:20:31.305Z,3744.00
2019-03-27T11:21:27.035Z,4012.00
2019-03-27T11:22:26.051Z,4240.00
2019-03-27T11:23:26.019Z,4492.00
2019-03-27T11:24:26.007Z,4792.00
2019-03-27T11:25:25.995Z,5120.00
2019-03-27T11:26:25.991Z,5620.00
2019-03-27T11:27:25.995Z,6060.00
2019-03-27T11:28:25.982Z,6348.00
2019-03-27T11:29:25.951Z,6748.00
2019-03-27T11:30:25.939Z,7180.00
2019-03-27T11:31:25.938Z,7420.00
2019-03-27T11:32:25.935Z,7656.00
2019-03-27T11:33:28.737Z,7900.00
2019-03-27T11:34:25.929Z,8700.00
2019-03-27T11:35:25.886Z,9612.00
2019-03-27T11:36:25.924Z,10516.00
2019-03-27T11:37:25.887Z,12064.00
2019-03-27T11:38:25.887Z,27456.00
2019-03-27T11:39:25.857Z,32448.00
2019-03-27T11:40:25.829Z,22240.00
2019-03-27T11:41:25.819Z,17664.00
2019-03-27T11:42:25.807Z,17664.00
2019-03-27T11:43:25.819Z,29024.00
2019-03-27T11:44:25.814Z,23392.00
2019-03-27T11:45:25.813Z,33024.00
2019-03-27T11:46:25.763Z,33728.00
2019-03-27T11:47:25.753Z,52896.00
2019-03-27T11:48:25.767Z,30016.00
2019-03-27T11:49:25.740Z,13764.00
2019-03-27T11:50:25.728Z,9972.00
2019-03-27T11:51:25.709Z,8504.00
2019-03-27T11:52:25.705Z,7392.00
2019-03-27T11:53:25.707Z,6744.00
2019-03-27T11:54:25.685Z,6292.00
2019-03-27T11:55:25.671Z,6128.00
2019-03-27T11:56:25.656Z,6184.00
2019-03-27T11:57:25.645Z,6332.00
2019-03-27T11:58:25.663Z,6484.00
2019-03-27T11:59:25.635Z,6536.00
2019-03-27T12:00:25.613Z,6496.00
2019-03-27T12:01:38.692Z,6776.00
2019-03-27T12:02:26.591Z,7752.00
2019-03-27T12:03:25.593Z,10712.00
2019-03-27T12:04:25.576Z,9380.00
2019-03-27T12:05:25.554Z,9320.00
2019-03-27T12:06:25.548Z,7560.00
2019-03-27T12:07:25.549Z,6860.00
2019-03-27T12:08:25.628Z,6376.00
2019-03-27T12:09:25.513Z,6072.00
2019-03-27T12:10:25.508Z,5960.00
2019-03-27T12:11:25.497Z,5836.00
2019-03-27T12:12:25.486Z,5028.00
2019-03-27T12:13:25.497Z,4332.00
2019-03-27T12:14:25.463Z,3844.00
2019-03-27T12:15:25.452Z,3528.00
2019-03-27T12:16:25.444Z,3284.00
2019-03-27T12:17:25.429Z,3048.00
2019-03-27T12:18:25.445Z,2832.00
2019-03-27T12:19:25.405Z,2640.00
2019-03-27T12:20:25.397Z,2488.00
2019-03-27T12:21:25.385Z,2368.00
2019-03-27T12:22:25.371Z,2260.00
2019-03-27T12:23:25.382Z,2180.00
2019-03-27T12:24:25.370Z,2096.00
2019-03-27T12:25:25.347Z,2024.00
2019-03-27T12:26:25.340Z,1960.00
2019-03-27T12:27:25.334Z,1924.00
2019-03-27T12:28:25.321Z,1884.00
2019-03-27T12:29:25.307Z,1860.00
2019-03-27T12:30:25.298Z,1848.00
2019-03-27T12:31:25.291Z,1824.00
2019-03-27T12:32:25.283Z,1800.00
2019-03-27T12:33:25.279Z,1780.00
2019-03-27T12:34:25.267Z,1788.00
2019-03-27T12:35:25.231Z,1816.00
2019-03-27T12:36:25.222Z,1832.00
2019-03-27T12:37:25.209Z,1868.00
2019-03-27T12:38:25.215Z,1928.00
2019-03-27T12:39:25.188Z,1968.00
2019-03-27T12:40:25.180Z,1996.00
2019-03-27T12:41:25.176Z,2032.00
2019-03-27T12:42:25.152Z,2060.00
2019-03-27T12:43:25.166Z,2144.00
2019-03-27T12:44:25.137Z,2268.00
2019-03-27T12:45:25.121Z,2408.00
2019-03-27T12:46:25.111Z,2596.00
2019-03-27T12:47:25.095Z,2768.00
2019-03-27T12:48:25.102Z,3076.00
2019-03-27T12:49:25.093Z,3336.00
2019-03-27T12:50:25.068Z,3508.00
2019-03-27T12:51:25.053Z,3708.00
2019-03-27T12:52:25.046Z,3888.00
2019-03-27T12:53:25.063Z,4096.00
2019-03-27T12:54:25.044Z,4308.00
2019-03-27T12:55:25.007Z,4524.00
2019-03-27T12:56:25.001Z,4700.00
2019-03-27T12:57:24.990Z,4964.00
2019-03-27T12:58:24.993Z,5232.00
2019-03-27T12:59:24.963Z,5488.00
2019-03-27T13:00:24.951Z,5728.00
2019-03-27T13:01:24.940Z,6076.00
2019-03-27T13:02:24.938Z,6244.00
2019-03-27T13:03:24.925Z,6560.00
2019-03-27T13:04:24.923Z,7184.00
2019-03-27T13:05:24.947Z,6896.00
2019-03-27T13:06:24.890Z,6708.00
2019-03-27T13:07:24.884Z,6912.00
2019-03-27T13:08:24.864Z,7328.00
2019-03-27T13:09:24.868Z,7464.00
2019-03-27T13:10:24.841Z,7568.00
2019-03-27T13:11:24.856Z,8400.00
2019-03-27T13:12:24.815Z,12404.00
2019-03-27T13:13:24.805Z,9620.00
2019-03-27T13:14:24.821Z,10060.00
2019-03-27T13:15:24.785Z,9356.00
2019-03-27T13:16:24.773Z,11252.00
2019-03-27T13:17:24.763Z,8372.00
2019-03-27T13:18:24.781Z,21344.00
2019-03-27T13:19:24.773Z,21920.00
2019-03-27T13:20:24.728Z,16192.00
2019-03-27T13:21:26.747Z,14812.00
2019-03-27T13:22:24.712Z,9324.00
2019-03-27T13:23:24.704Z,7892.00
2019-03-27T13:24:24.702Z,6616.00
2019-03-27T13:25:24.686Z,5788.00
2019-03-27T13:26:24.672Z,5236.00
2019-03-27T13:27:24.653Z,4724.00
2019-03-27T13:28:24.642Z,4296.00
2019-03-27T13:29:24.687Z,3928.00
2019-03-27T13:30:24.625Z,3624.00
2019-03-27T13:31:24.726Z,3436.00
2019-03-27T13:32:24.600Z,3312.00
2019-03-27T13:33:24.587Z,3272.00
2019-03-27T13:34:24.616Z,3568.00
2019-03-27T13:35:24.567Z,4268.00
2019-03-27T13:36:24.568Z,4548.00
2019-03-27T13:37:24.544Z,4008.00
2019-03-27T13:38:24.550Z,3780.00
2019-03-27T13:39:24.535Z,3388.00
2019-03-27T13:40:24.514Z,3124.00
2019-03-27T13:41:24.513Z,2988.00
2019-03-27T13:42:24.499Z,3132.00
2019-03-27T13:43:24.478Z,3932.00
2019-03-27T13:44:36.447Z,5472.00
2019-03-27T13:45:25.454Z,4916.00
2019-03-27T13:46:24.454Z,6420.00
2019-03-27T13:47:24.450Z,6036.00
2019-03-27T13:48:24.447Z,5560.00
2019-03-27T13:49:24.454Z,5252.00
2019-03-27T13:50:24.399Z,5212.00
2019-03-27T13:51:24.388Z,5272.00
2019-03-27T13:52:24.411Z,5212.00
2019-03-27T13:53:24.376Z,5136.00
2019-03-27T13:54:24.400Z,5344.00
2019-03-27T13:55:24.345Z,5504.00
2019-03-27T13:56:24.336Z,5496.00
2019-03-27T13:57:24.334Z,5476.00
2019-03-27T13:58:24.319Z,5660.00
2019-03-27T13:59:24.305Z,5724.00
2019-03-27T14:00:24.323Z,5500.00
2019-03-27T14:01:24.282Z,5140.00
2019-03-27T14:02:24.275Z,4588.00
2019-03-27T14:03:24.266Z,3704.00
2019-03-27T14:04:24.249Z,3048.00
2019-03-27T14:05:24.254Z,2788.00
2019-03-27T14:06:24.229Z,2860.00
2019-03-27T14:07:24.219Z,2984.00
2019-03-27T14:08:24.207Z,3044.00
2019-03-27T14:09:24.206Z,3032.00
2019-03-27T14:10:24.204Z,2988.00
2019-03-27T14:11:24.173Z,2932.00
2019-03-27T14:12:24.159Z,2820.00
2019-03-27T14:13:24.147Z,2648.00
2019-03-27T14:14:24.136Z,2536.00
2019-03-27T14:15:24.158Z,2580.00
2019-03-27T14:16:24.122Z,2804.00
2019-03-27T14:17:24.105Z,3028.00
2019-03-27T14:18:24.092Z,3136.00
2019-03-27T14:19:24.082Z,3156.00
2019-03-27T14:20:24.084Z,3164.00
2019-03-27T14:21:24.065Z,3112.00
2019-03-27T14:22:24.071Z,3028.00
2019-03-27T14:23:24.041Z,3028.00
2019-03-27T14:24:24.023Z,3148.00
2019-03-27T14:25:24.045Z,3264.00
2019-03-27T14:26:24.005Z,3148.00
2019-03-27T14:27:24.008Z,3184.00
2019-03-27T14:28:23.983Z,3192.00
2019-03-27T14:29:23.968Z,3144.00
2019-03-27T14:30:23.972Z,3144.00
2019-03-27T14:31:23.950Z,3180.00
2019-03-27T14:32:23.937Z,3132.00
2019-03-27T14:33:23.924Z,3020.00
2019-03-27T14:34:23.934Z,3004.00
2019-03-27T14:35:23.922Z,2924.00
2019-03-27T14:36:23.895Z,2976.00
2019-03-27T14:37:23.913Z,3000.00
2019-03-27T14:38:23.874Z,2992.00
2019-03-27T14:39:23.860Z,3024.00
2019-03-27T14:40:23.877Z,3080.00
2019-03-27T14:41:23.834Z,3160.00
2019-03-27T14:42:23.832Z,3184.00
2019-03-27T14:43:26.880Z,3216.00
2019-03-27T14:44:23.824Z,3236.00
2019-03-27T14:45:23.830Z,3340.00
2019-03-27T14:46:23.813Z,3464.00
2019-03-27T14:47:23.800Z,3568.00
2019-03-27T14:48:23.757Z,3672.00
2019-03-27T14:49:23.746Z,3720.00
2019-03-27T14:50:23.765Z,3624.00
2019-03-27T14:51:23.743Z,3468.00
2019-03-27T14:52:23.760Z,3340.00
2019-03-27T14:53:23.700Z,3292.00
2019-03-27T14:54:23.691Z,3136.00
2019-03-27T14:55:23.744Z,2952.00
2019-03-27T14:56:23.667Z,2880.00
2019-03-27T14:57:23.667Z,2828.00
2019-03-27T14:58:23.643Z,3120.00
2019-03-27T14:59:23.631Z,3180.00
2019-03-27T15:00:23.650Z,3116.00
2019-03-27T15:01:23.609Z,3032.00
2019-03-27T15:02:23.598Z,2944.00
2019-03-27T15:03:23.593Z,2924.00
2019-03-27T15:04:23.577Z,2860.00
2019-03-27T15:05:23.584Z,2872.00
2019-03-27T15:06:23.551Z,2884.00
2019-03-27T15:07:23.547Z,2892.00
2019-03-27T15:08:23.534Z,2816.00
2019-03-27T15:09:23.526Z,2804.00
2019-03-27T15:10:23.528Z,2876.00
2019-03-27T15:11:23.503Z,2964.00
2019-03-27T15:12:23.484Z,3164.00
2019-03-27T15:13:23.472Z,3340.00
2019-03-27T15:14:23.467Z,3288.00
2019-03-27T15:15:23.474Z,3220.00
2019-03-27T15:16:23.443Z,3056.00
2019-03-27T15:17:23.432Z,3032.00
2019-03-27T15:18:23.418Z,2900.00
2019-03-27T15:19:23.421Z,2744.00
2019-03-27T15:20:23.433Z,2632.00
2019-03-27T15:21:23.391Z,2580.00
2019-03-27T15:22:23.377Z,2548.00
2019-03-27T15:23:23.364Z,2572.00
2019-03-27T15:24:23.356Z,2592.00
2019-03-27T15:25:23.402Z,2592.00
2019-03-27T15:26:23.347Z,2600.00
2019-03-27T15:27:23.338Z,2684.00
2019-03-27T15:28:23.306Z,2636.00
2019-03-27T15:29:23.302Z,2668.00
2019-03-27T15:30:23.287Z,2776.00
2019-03-27T15:31:23.292Z,2864.00
2019-03-27T15:32:23.273Z,2944.00
2019-03-27T15:33:23.271Z,3012.00
2019-03-27T15:34:23.242Z,3028.00
2019-03-27T15:35:23.231Z,3044.00
2019-03-27T15:36:23.232Z,2948.00
2019-03-27T15:37:23.220Z,2880.00
2019-03-27T15:38:23.218Z,2772.00
2019-03-27T15:39:23.182Z,2624.00
2019-03-27T15:40:23.177Z,2464.00
2019-03-27T15:41:23.179Z,2336.00
2019-03-27T15:42:23.148Z,2276.00
2019-03-27T15:43:23.138Z,2276.00
2019-03-27T15:44:23.136Z,2256.00
2019-03-27T15:45:23.116Z,2220.00
2019-03-27T15:46:23.122Z,2192.00
2019-03-27T15:47:23.111Z,2148.00
2019-03-27T15:48:23.081Z,2112.00
2019-03-27T15:49:23.076Z,2076.00
2019-03-27T15:50:23.071Z,2096.00
2019-03-27T15:51:23.078Z,2112.00
2019-03-27T15:52:35.701Z,2120.00
2019-03-27T15:53:24.036Z,2148.00
2019-03-27T15:54:23.016Z,2164.00
2019-03-27T15:55:23.015Z,2092.00
2019-03-27T15:56:23.015Z,1976.00
2019-03-27T15:57:22.991Z,1968.00
2019-03-27T15:58:22.975Z,1936.00
2019-03-27T15:59:22.957Z,1832.00
2019-03-27T16:00:22.951Z,1752.00
2019-03-27T16:01:22.962Z,1752.00
2019-03-27T16:02:22.925Z,1804.00
2019-03-27T16:03:22.911Z,1844.00
2019-03-27T16:04:22.909Z,1864.00
2019-03-27T16:05:22.890Z,1840.00
2019-03-27T16:06:22.894Z,1812.00
2019-03-27T16:07:22.871Z,1764.00
2019-03-27T16:08:22.891Z,1708.00
2019-03-27T16:09:22.843Z,1644.00
2019-03-27T16:10:22.832Z,1608.00
2019-03-27T16:11:22.874Z,1628.00
2019-03-27T16:12:22.830Z,1704.00
2019-03-27T16:13:22.826Z,1760.00
2019-03-27T16:14:22.785Z,1800.00
2019-03-27T16:15:22.774Z,1812.00
2019-03-27T16:16:22.782Z,1748.00
2019-03-27T16:17:22.751Z,1736.00
2019-03-27T16:18:22.752Z,1736.00
2019-03-27T16:19:22.753Z,1668.00
2019-03-27T16:20:22.719Z,1620.00
2019-03-27T16:21:22.722Z,1628.00
2019-03-27T16:22:22.694Z,1684.00
2019-03-27T16:23:22.683Z,1784.00
2019-03-27T16:24:22.675Z,1856.00
2019-03-27T16:25:22.661Z,1884.00
2019-03-27T16:26:22.706Z,1896.00
2019-03-27T16:27:22.642Z,1900.00
2019-03-27T16:28:22.642Z,1936.00
2019-03-27T16:29:22.637Z,1988.00
2019-03-27T16:30:22.632Z,1988.00
2019-03-27T16:31:22.629Z,1960.00
2019-03-27T16:32:22.589Z,1920.00
2019-03-27T16:33:22.569Z,1888.00
2019-03-27T16:34:25.088Z,1852.00
2019-03-27T16:35:22.561Z,1820.00
2019-03-27T16:36:22.566Z,1748.00
2019-03-27T16:37:22.525Z,1696.00
2019-03-27T16:38:22.525Z,1668.00
2019-03-27T16:39:22.502Z,1656.00
2019-03-27T16:40:22.500Z,1676.00
2019-03-27T16:41:22.513Z,1684.00
2019-03-27T16:42:22.479Z,1672.00
2019-03-27T16:43:22.463Z,1636.00
2019-03-27T16:44:22.450Z,1588.00
2019-03-27T16:45:22.449Z,1544.00
2019-03-27T16:46:22.456Z,1524.00
2019-03-27T16:47:22.490Z,1464.00
2019-03-27T16:48:22.417Z,1444.00
2019-03-27T16:49:22.426Z,1388.00
2019-03-27T16:50:22.377Z,1336.00
2019-03-27T16:51:22.405Z,1300.00
2019-03-27T16:52:22.358Z,1276.00
2019-03-27T16:53:22.341Z,1268.00
2019-03-27T16:54:22.331Z,1248.00
2019-03-27T16:55:22.321Z,1204.00
2019-03-27T16:56:22.372Z,1168.00
2019-03-27T16:57:22.312Z,1160.00
2019-03-27T16:58:22.293Z,1144.00
2019-03-27T16:59:22.276Z,1120.00
2019-03-27T17:00:22.286Z,1100.00
2019-03-27T17:01:22.271Z,1072.00
2019-03-27T17:02:22.295Z,1044.00
2019-03-27T17:03:22.247Z,1008.00
2019-03-27T17:04:22.235Z,984.00
2019-03-27T17:05:22.216Z,968.00
2019-03-27T17:06:22.243Z,964.00
2019-03-27T17:07:22.188Z,948.00
2019-03-27T17:08:22.219Z,932.00
2019-03-27T17:09:22.167Z,908.00
2019-03-27T17:10:22.159Z,876.00
2019-03-27T17:11:22.148Z,844.00
2019-03-27T17:12:22.150Z,812.00
2019-03-27T17:13:22.126Z,776.00
2019-03-27T17:14:22.107Z,744.00
2019-03-27T17:15:22.098Z,708.00
2019-03-27T17:16:22.135Z,672.00
2019-03-27T17:17:22.110Z,632.00
2019-03-27T17:18:22.074Z,604.00
2019-03-27T17:19:22.072Z,580.00
2019-03-27T17:20:22.037Z,560.00
2019-03-27T17:21:22.042Z,556.00
2019-03-27T17:22:22.030Z,544.00
2019-03-27T17:23:22.003Z,532.00
2019-03-27T17:24:21.991Z,512.00
2019-03-27T17:25:21.989Z,488.00
2019-03-27T17:26:21.970Z,460.00
2019-03-27T17:27:22.092Z,436.00
2019-03-27T17:28:21.961Z,416.00